Time;durP1;ratioP1;P1;durP2;ratioP2;P2;SDS_P1;SDS_P2;PMS_P1;PMS_P2;Temp;Humidity;BMP_temperature;BMP_pressure;BME280_temperature;BME280_humidity;BME280_pressure;Samples;Min_cycle;Max_cycle;Signal;HPM_P1;HPM_P2
2022/04/12 00:06:27;;;;;;;58.20;40.20;;;;;;;1.48;75.14;99838.66;434972;1268;255512;-62
2022/04/12 00:16:33;;;;;;;52.40;37.00;;;;;;;1.37;75.39;99830.98;437746;1267;142114;-61
2022/04/12 00:26:39;;;;;;;59.50;39.00;;;;;;;1.32;75.45;99820.73;431975;1267;141619;-63
2022/04/12 00:36:45;;;;;;;52.30;37.80;;;;;;;1.09;75.18;99823.98;432473;1268;141296;-62
2022/04/12 00:46:51;;;;;;;54.50;36.60;;;;;;;0.74;75.49;99825.02;434794;1266;141272;-63
2022/04/12 00:56:57;;;;;;;47.90;38.30;;;;;;;0.46;75.82;99830.71;432208;1267;141926;-63
2022/04/12 01:07:04;;;;;;;56.10;37.00;;;;;;;0.20;76.02;99837.04;431687;1267;141560;-63
2022/04/12 01:17:12;;;;;;;56.50;37.20;;;;;;;-0.10;76.05;99842.02;436354;1268;146955;-62
2022/04/12 01:27:18;;;;;;;52.50;37.80;;;;;;;-0.34;76.60;99838.75;432664;1268;142707;-63
2022/04/12 01:37:23;;;;;;;52.90;36.80;;;;;;;-0.62;76.80;99840.38;433776;1267;142410;-63
2022/04/12 01:47:29;;;;;;;51.60;36.60;;;;;;;-0.88;76.76;99836.43;433237;1268;147516;-64
2022/04/12 01:57:35;;;;;;;49.10;38.00;;;;;;;-1.13;76.96;99842.05;433527;1267;140890;-63
2022/04/12 02:07:43;;;;;;;47.10;34.10;;;;;;;-1.27;77.47;99848.40;434404;1267;141414;-63
2022/04/12 02:17:49;;;;;;;42.90;32.10;;;;;;;-1.41;77.83;99854.23;435843;1266;141796;-62
2022/04/12 02:27:55;;;;;;;46.20;34.20;;;;;;;-1.56;77.90;99866.23;431277;1270;142478;-62
2022/04/12 02:38:01;;;;;;;51.40;36.00;;;;;;;-1.56;78.56;99869.48;432499;1267;141314;-63
2022/04/12 02:48:09;;;;;;;45.80;32.50;;;;;;;-1.64;78.52;99876.95;433139;1267;142008;-62
2022/04/12 02:58:15;;;;;;;42.70;32.80;;;;;;;-1.73;78.50;99880.96;431530;1269;142296;-63
2022/04/12 03:08:22;;;;;;;44.20;32.20;;;;;;;-1.82;78.59;99879.86;431492;1268;142221;-62
2022/04/12 03:18:28;;;;;;;52.50;36.50;;;;;;;-1.88;78.67;99882.30;432383;1268;141624;-63
2022/04/12 03:28:34;;;;;;;45.10;35.10;;;;;;;-1.90;78.93;99886.09;431146;1267;142182;-63
2022/04/12 03:38:48;;;;;;;49.80;36.00;;;;;;;-1.86;79.31;99884.52;432159;1265;143852;-64
2022/04/12 03:48:54;;;;;;;46.30;32.00;;;;;;;-1.79;79.44;99886.00;431827;1267;141914;-62
2022/04/12 03:58:59;;;;;;;49.70;31.90;;;;;;;-1.73;79.32;99894.52;433499;1268;140929;-64
2022/04/12 04:09:05;;;;;;;46.90;33.60;;;;;;;-1.62;79.44;99902.67;431348;1268;140995;-67
2022/04/12 04:19:11;;;;;;;50.60;32.90;;;;;;;-1.37;79.64;99914.81;432337;1268;141135;-63
2022/04/12 04:29:17;;;;;;;55.00;37.10;;;;;;;-0.85;79.39;99925.07;431839;1268;142622;-62
2022/04/12 04:39:23;;;;;;;53.90;38.40;;;;;;;-0.34;78.96;99928.58;432542;1268;141709;-61
2022/04/12 04:49:29;;;;;;;60.70;42.90;;;;;;;0.19;78.78;99932.09;431891;1268;141523;-62
2022/04/12 04:59:35;;;;;;;64.50;45.20;;;;;;;0.85;78.55;99933.40;431815;1268;142785;-63
2022/04/12 05:09:41;;;;;;;56.00;42.30;;;;;;;1.83;78.05;99947.81;431215;1267;152588;-61
2022/04/12 05:19:47;;;;;;;45.70;35.70;;;;;;;3.34;76.85;99953.52;432204;1268;142506;-63
2022/04/12 05:29:53;;;;;;;46.60;33.30;;;;;;;10.54;73.96;99953.82;431397;1265;141578;-62
2022/04/12 05:40:03;;;;;;;36.10;29.80;;;;;;;19.51;62.82;99947.36;431525;1268;142083;-62
2022/04/12 05:50:11;;;;;;;34.60;28.50;;;;;;;25.67;52.69;99943.84;433816;1269;141982;-61
2022/04/12 06:00:19;;;;;;;19.90;17.80;;;;;;;30.01;44.42;99943.89;431804;1270;141560;-63
2022/04/12 06:10:25;;;;;;;20.30;18.10;;;;;;;33.75;38.18;99952.54;431785;1267;143741;-63
2022/04/12 06:20:36;;;;;;;13.60;12.40;;;;;;;37.63;32.74;99950.42;432351;1268;143204;-62
2022/04/12 06:30:43;;;;;;;11.30;10.20;;;;;;;39.17;28.46;99952.73;432082;1267;141976;-61
2022/04/12 06:40:50;;;;;;;7.30;6.60;;;;;;;40.86;25.32;99962.66;431825;1268;141297;-62
2022/04/12 06:50:55;;;;;;;12.60;7.60;;;;;;;42.68;22.46;99957.29;431894;1268;142385;-62
2022/04/12 07:01:01;;;;;;;5.20;4.00;;;;;;;44.44;20.42;99963.65;431913;1267;143156;-62
2022/04/12 07:11:12;;;;;;;6.80;5.00;;;;;;;44.44;18.30;99967.33;431664;1268;140777;-63
2022/04/12 07:21:21;;;;;;;16.00;6.10;;;;;;;45.54;17.10;99972.27;432346;1268;144783;-65
2022/04/12 07:31:27;;;;;;;4.50;4.10;;;;;;;45.89;15.79;99982.88;432080;1268;140927;-70
2022/04/12 07:41:33;;;;;;;6.10;3.90;;;;;;;45.11;14.71;99985.86;434161;1270;141610;-67
2022/04/12 07:51:40;;;;;;;7.10;4.30;;;;;;;44.17;14.17;99979.71;433134;1267;140242;-68
2022/04/12 08:01:45;;;;;;;2.90;2.50;;;;;;;44.96;13.43;99982.11;438197;1268;141949;-70
2022/04/12 08:11:51;;;;;;;4.50;2.40;;;;;;;43.48;12.97;99983.96;439263;1267;140606;-76
2022/04/12 08:22:00;;;;;;;4.90;2.70;;;;;;;41.67;12.83;99978.50;440283;1267;142047;-70
2022/04/12 08:32:08;;;;;;;2.70;2.50;;;;;;;41.11;12.34;99982.25;434648;1267;142013;-63
2022/04/12 08:42:14;;;;;;;4.30;3.10;;;;;;;30.86;14.20;99995.09;433321;1268;141413;-61
2022/04/12 08:52:24;;;;;;;4.80;3.10;;;;;;;23.35;17.36;100013.14;433223;1268;142192;-66
2022/04/12 09:02:30;;;;;;;5.40;3.10;;;;;;;20.72;19.91;100024.58;431645;1270;140621;-63
2022/04/12 09:12:36;;;;;;;4.00;3.20;;;;;;;18.24;21.65;100036.38;432431;1267;141775;-60
2022/04/12 09:22:43;;;;;;;2.90;2.60;;;;;;;16.41;22.83;100037.42;432004;1268;155388;-59
2022/04/12 09:32:50;;;;;;;4.70;2.30;;;;;;;15.93;23.50;100027.02;432365;1271;140874;-61
2022/04/12 09:42:57;;;;;;;4.90;2.50;;;;;;;14.44;24.68;100029.95;431234;1267;141005;-61
2022/04/12 09:53:06;;;;;;;4.30;2.90;;;;;;;13.18;25.55;100025.48;432068;1268;142022;-59
2022/04/12 10:03:15;;;;;;;3.40;2.20;;;;;;;12.99;26.26;100029.54;431790;1268;141115;-62
2022/04/12 10:13:21;;;;;;;2.50;2.10;;;;;;;13.65;25.72;100017.21;430885;1268;141270;-61
2022/04/12 10:23:30;;;;;;;3.80;2.90;;;;;;;13.88;26.12;100013.36;431840;1268;143739;-62
2022/04/12 10:33:36;;;;;;;3.40;2.60;;;;;;;13.45;26.34;100008.71;432407;1268;141579;-64
2022/04/12 10:43:43;;;;;;;3.40;2.30;;;;;;;12.86;27.40;100003.20;432422;1268;141106;-68
2022/04/12 10:53:57;;;;;;;6.60;2.50;;;;;;;12.41;27.78;100006.10;433129;1269;141773;-62
2022/04/12 11:04:05;;;;;;;3.40;3.10;;;;;;;12.03;28.31;100004.65;431745;1268;141699;-61
2022/04/12 11:14:26;;;;;;;3.90;2.40;;;;;;;11.86;28.42;100004.98;432637;1268;141936;-60
2022/04/12 11:24:33;;;;;;;4.00;2.20;;;;;;;11.87;27.74;100002.32;432002;1267;140965;-57
2022/04/12 11:34:40;;;;;;;3.80;2.30;;;;;;;11.73;28.36;100000.02;433104;1268;146686;-52
2022/04/12 11:44:54;;;;;;;3.40;3.00;;;;;;;11.59;28.46;100006.31;431577;1268;141278;-60
2022/04/12 11:55:03;;;;;;;5.10;2.70;;;;;;;11.41;28.66;100006.02;431666;1268;140203;-62
2022/04/12 12:05:13;;;;;;;3.20;2.50;;;;;;;11.34;28.93;99999.56;432301;1268;261545;-58
2022/04/12 12:15:21;;;;;;;3.60;2.40;;;;;;;11.26;29.11;99988.86;432085;1268;141221;-58
2022/04/12 12:25:41;;;;;;;4.40;2.20;;;;;;;11.29;29.47;99980.27;431454;1268;140272;-62
2022/04/12 12:35:49;;;;;;;4.40;2.50;;;;;;;11.57;29.65;99959.59;432119;1268;143316;-61
2022/04/12 12:45:55;;;;;;;4.10;2.60;;;;;;;11.71;29.42;99945.77;433142;1268;141316;-57
2022/04/12 12:56:02;;;;;;;3.60;2.60;;;;;;;11.58;29.34;99943.27;432084;1268;141042;-64
2022/04/12 13:06:10;;;;;;;6.30;2.90;;;;;;;11.42;29.21;99948.27;432761;1268;140769;-58
2022/04/12 13:16:17;;;;;;;4.40;2.60;;;;;;;11.43;29.13;99942.61;431323;1268;141307;-61
2022/04/12 13:26:23;;;;;;;4.50;2.80;;;;;;;11.44;29.34;99943.78;432006;1271;142188;-60
2022/04/12 13:36:29;;;;;;;7.60;2.40;;;;;;;11.58;29.43;99945.14;431836;1268;140998;-63
2022/04/12 13:46:35;;;;;;;5.20;2.60;;;;;;;11.73;29.50;99948.09;430723;1270;142146;-59
2022/04/12 13:56:41;;;;;;;5.50;2.80;;;;;;;11.86;29.70;99946.79;435182;1268;145544;-61
2022/04/12 14:06:48;;;;;;;4.30;2.70;;;;;;;11.83;29.99;99944.14;436820;1268;143924;-59
2022/04/12 14:16:54;;;;;;;4.70;3.00;;;;;;;11.83;30.00;99942.20;432177;1268;140924;-67
2022/04/12 14:27:01;;;;;;;5.70;2.80;;;;;;;11.65;30.12;99939.86;433562;1268;141565;-64
2022/04/12 14:37:08;;;;;;;5.70;3.80;;;;;;;11.59;30.46;99946.19;431062;1268;142160;-60
2022/04/12 14:47:14;;;;;;;5.70;2.40;;;;;;;11.48;30.72;99944.94;431882;1268;142084;-60
2022/04/12 14:57:20;;;;;;;5.30;3.50;;;;;;;11.38;30.93;99940.80;432795;1268;140457;-61
2022/04/12 15:07:26;;;;;;;5.30;3.40;;;;;;;11.37;31.15;99938.77;430580;1268;141692;-60
2022/04/12 15:17:32;;;;;;;7.80;4.20;;;;;;;11.31;31.15;99939.67;431659;1268;141158;-59
2022/04/12 15:27:38;;;;;;;7.50;3.20;;;;;;;11.20;31.34;99944.67;430531;1271;141875;-57
2022/04/12 15:37:47;;;;;;;5.60;3.80;;;;;;;11.06;31.73;99950.30;431414;1268;142059;-59
2022/04/12 15:47:56;;;;;;;4.70;3.40;;;;;;;10.85;31.94;99948.53;431777;1268;142056;-60
2022/04/12 15:58:09;;;;;;;6.00;4.10;;;;;;;10.66;32.12;99951.25;430737;1270;141143;-60
2022/04/12 16:08:15;;;;;;;7.00;4.20;;;;;;;10.42;32.63;99954.17;433058;1268;140865;-61
2022/04/12 16:18:20;;;;;;;6.40;4.50;;;;;;;10.12;32.85;99962.80;431634;1268;141895;-60
2022/04/12 16:28:27;;;;;;;6.80;3.70;;;;;;;9.89;33.34;99971.23;431987;1268;142129;-60
2022/04/12 16:38:33;;;;;;;6.80;4.10;;;;;;;9.73;33.92;99983.35;433036;1268;143901;-60
2022/04/12 16:48:39;;;;;;;7.70;4.90;;;;;;;9.54;34.13;99991.13;431249;1268;162376;-59
2022/04/12 16:58:45;;;;;;;5.00;4.10;;;;;;;9.31;34.10;100000.02;433078;1268;140924;-60
2022/04/12 17:08:51;;;;;;;9.30;4.30;;;;;;;9.05;35.07;100013.03;431853;1268;140349;-61
2022/04/12 17:18:57;;;;;;;8.90;6.30;;;;;;;8.73;35.82;100014.65;431178;1270;140971;-59
2022/04/12 17:29:04;;;;;;;8.50;6.00;;;;;;;8.39;36.15;100022.73;432971;1268;142309;-61
2022/04/12 17:39:10;;;;;;;11.90;7.90;;;;;;;8.09;36.86;100028.98;431756;1270;140495;-63
2022/04/12 17:49:16;;;;;;;6.60;5.10;;;;;;;7.71;37.63;100036.80;432002;1267;140432;-64
2022/04/12 17:59:22;;;;;;;9.60;5.60;;;;;;;7.49;38.12;100045.41;431767;1268;143079;-62
2022/04/12 18:09:28;;;;;;;11.70;8.30;;;;;;;7.26;38.37;100047.46;431598;1268;140246;-64
2022/04/12 18:19:35;;;;;;;17.90;13.50;;;;;;;7.07;38.66;100061.83;430739;1268;146925;-64
2022/04/12 18:30:01;;;;;;;11.80;9.10;;;;;;;6.94;39.01;100068.29;431779;1268;141406;-62
2022/04/12 18:40:09;;;;;;;14.70;8.90;;;;;;;6.83;39.49;100072.59;431573;1267;142239;-63
2022/04/12 18:50:16;;;;;;;10.00;7.20;;;;;;;6.71;39.78;100073.42;433541;1268;141739;-62
2022/04/12 19:00:21;;;;;;;11.90;8.70;;;;;;;6.53;39.98;100069.75;432168;1268;141192;-64
2022/04/12 19:10:29;;;;;;;12.80;8.00;;;;;;;6.34;40.40;100076.08;439232;1267;140830;-62
2022/04/12 19:20:35;;;;;;;12.80;9.10;;;;;;;6.18;40.44;100073.73;433836;1270;141131;-62
2022/04/12 19:30:41;;;;;;;13.10;8.40;;;;;;;6.05;40.39;100066.01;430903;1267;151069;-61
2022/04/12 19:40:48;;;;;;;18.50;12.60;;;;;;;5.91;40.43;100069.11;431955;1268;145074;-63
2022/04/12 19:50:54;;;;;;;15.30;10.90;;;;;;;5.67;40.42;100075.53;431797;1268;142584;-62
2022/04/12 20:01:00;;;;;;;13.40;10.10;;;;;;;5.49;40.85;100074.23;431187;1270;141044;-61
2022/04/12 20:11:10;;;;;;;9.90;7.90;;;;;;;5.57;40.99;100080.75;433092;1267;142022;-60
2022/04/12 20:21:16;;;;;;;12.40;9.70;;;;;;;5.55;40.86;100089.67;433342;1267;198832;-62
2022/04/12 20:31:22;;;;;;;13.20;9.20;;;;;;;5.32;40.94;100095.50;432057;1267;141564;-63
2022/04/12 20:41:28;;;;;;;14.40;10.60;;;;;;;5.24;41.57;100096.13;432560;1268;140712;-63
2022/04/12 20:51:35;;;;;;;14.60;10.40;;;;;;;5.20;41.82;100095.73;431267;1270;141056;-63
2022/04/12 21:01:41;;;;;;;18.80;12.90;;;;;;;5.05;42.02;100100.21;432296;1267;141396;-63
2022/04/12 21:11:47;;;;;;;17.40;12.20;;;;;;;4.95;42.02;100095.31;432512;1266;141534;-62
2022/04/12 21:21:53;;;;;;;18.60;11.80;;;;;;;4.82;42.32;100099.89;431275;1268;146623;-62
2022/04/12 21:31:59;;;;;;;18.60;12.40;;;;;;;4.73;42.45;100093.95;438181;1267;140556;-63
2022/04/12 21:42:07;;;;;;;19.60;12.60;;;;;;;4.58;42.83;100103.93;432090;1268;141430;-61
2022/04/12 21:52:13;;;;;;;19.00;11.80;;;;;;;4.36;43.00;100105.48;433284;1268;140842;-61
2022/04/12 22:02:19;;;;;;;15.20;10.10;;;;;;;4.29;43.20;100103.95;433134;1267;141983;-61
2022/04/12 22:12:25;;;;;;;18.50;11.20;;;;;;;4.32;43.07;100098.49;432629;1268;141746;-60
2022/04/12 22:22:31;;;;;;;18.80;12.00;;;;;;;4.44;42.88;100097.42;431220;1268;141481;-58
2022/04/12 22:32:37;;;;;;;14.20;10.00;;;;;;;4.41;42.99;100099.43;431782;1268;141247;-61
2022/04/12 22:42:43;;;;;;;18.90;12.10;;;;;;;4.37;42.99;100098.52;431096;1268;140671;-61
2022/04/12 22:52:50;;;;;;;18.00;12.20;;;;;;;4.29;43.12;100094.08;432467;1266;142254;-61
2022/04/12 23:02:56;;;;;;;17.50;11.60;;;;;;;4.18;43.58;100098.90;431669;1269;144101;-60
2022/04/12 23:13:03;;;;;;;11.50;9.40;;;;;;;4.12;43.72;100094.05;431724;1268;142912;-59
2022/04/12 23:23:09;;;;;;;17.00;12.30;;;;;;;4.13;44.10;100093.83;433104;1267;141815;-60
2022/04/12 23:33:15;;;;;;;14.30;10.10;;;;;;;4.09;44.42;100086.14;432685;1268;141003;-59
2022/04/12 23:43:25;;;;;;;18.30;12.40;;;;;;;3.98;44.81;100084.92;432094;1267;141790;-60
2022/04/12 23:53:31;;;;;;;21.00;13.20;;;;;;;3.80;45.21;100093.73;432618;1268;142237;-60
